createdAt,value
2023-02-09T07:22:23.529Z,139332.88
2023-02-09T07:27:28.996Z,139356.09
2023-02-09T07:32:34.013Z,139378.06
2023-02-09T07:37:39.998Z,139420.88
2023-02-09T07:42:44.983Z,139459.97
2023-02-09T07:47:48.452Z,139496.66
2023-02-09T07:52:53.655Z,139522.31
2023-02-09T07:57:58.490Z,139555.34
2023-02-09T08:03:02.839Z,139605.47
2023-02-09T08:08:06.359Z,139636.09
2023-02-09T08:13:11.673Z,139721.72
2023-02-09T08:18:17.301Z,139754.75
2023-02-09T08:23:23.043Z,139792.69
2023-02-09T08:28:42.895Z,139812.28
2023-02-09T08:33:48.328Z,139789.03
2023-02-09T08:38:51.856Z,139789.03
2023-02-09T08:43:56.696Z,139831.91
2023-02-09T08:49:07.674Z,139899.25
2023-02-09T08:54:11.348Z,139912.75
2023-02-09T08:59:22.650Z,139954.31
2023-02-09T09:04:28.107Z,139946.97
2023-02-09T09:09:32.523Z,139961.66
2023-02-09T09:14:37.811Z,140009.47
2023-02-09T09:19:42.764Z,140062.19
2023-02-09T09:24:48.776Z,140130.81
2023-02-09T09:29:55.375Z,140127.13
2023-02-09T09:35:03.595Z,140167.63
2023-02-09T09:40:14.947Z,140189.66
2023-02-09T09:45:22.033Z,140206.81
2023-02-09T09:50:27.293Z,140238.69
2023-02-09T10:07:23.626Z,140309.88
2023-02-09T10:25:00.163Z,140351.56
2023-02-09T10:36:10.376Z,140374.88
2023-02-09T10:41:18.343Z,140389.63
2023-02-09T10:46:22.351Z,140401.88
2023-02-09T10:51:29.406Z,140473.13
2023-02-09T10:56:44.346Z,140468.16
2023-02-09T11:01:52.748Z,140523.38
2023-02-09T11:06:58.691Z,140551.63
2023-02-09T11:12:04.273Z,140576.19
2023-02-09T11:17:13.607Z,140565.16
2023-02-09T11:22:20.244Z,140578.66
2023-02-09T11:27:36.788Z,140606.91
2023-02-09T11:32:43.861Z,140619.22
2023-02-09T11:37:52.227Z,140782.63
2023-02-09T11:43:00.704Z,140785.09
2023-02-09T11:48:07.286Z,140772.81
2023-02-09T11:53:18.775Z,140806.00
2023-02-09T11:58:33.514Z,140825.63
2023-02-09T12:03:37.294Z,140861.28
2023-02-09T12:08:51.856Z,140873.59
2023-02-09T12:14:17.219Z,140873.59
2023-02-09T12:19:26.808Z,140877.28
2023-02-09T12:24:34.853Z,140919.13
2023-02-09T12:29:39.323Z,140879.75
2023-02-09T12:34:49.702Z,140856.38
2023-02-09T12:40:14.869Z,140887.09
2023-02-09T12:45:32.068Z,140911.72
2023-02-09T12:50:47.367Z,140988.00
2023-02-09T12:55:59.613Z,140984.31
2023-02-09T13:01:03.399Z,141004.00
2023-02-09T13:06:18.122Z,141007.69
2023-02-09T13:11:24.785Z,141095.06
2023-02-09T13:16:53.037Z,141088.94
2023-02-09T13:22:04.488Z,141063.06
2023-02-09T13:27:18.138Z,141031.09
2023-02-09T13:32:30.733Z,141043.38
2023-02-09T13:37:43.687Z,141044.59
2023-02-09T13:42:55.363Z,141019.97
2023-02-09T13:48:00.684Z,141006.47
2023-02-09T13:53:12.046Z,140957.25
2023-02-09T13:58:18.991Z,140921.59
2023-02-09T14:03:24.265Z,140988.00
2023-02-09T14:08:31.045Z,140944.91
2023-02-09T14:13:53.567Z,140973.22
2023-02-09T14:18:58.105Z,140986.78
2023-02-09T14:24:14.566Z,140916.63
2023-02-09T14:29:20.953Z,140931.41
2023-02-09T14:34:34.235Z,140938.78
2023-02-09T14:39:55.410Z,140917.91
2023-02-09T14:45:31.045Z,140905.56
2023-02-09T14:50:58.924Z,140904.34
2023-02-09T14:56:02.573Z,140874.84
2023-02-09T15:01:13.160Z,140869.91
2023-02-09T15:06:17.579Z,140802.25
2023-02-09T15:11:42.770Z,140747.00
2023-02-09T15:16:48.366Z,140745.75
2023-02-09T15:22:06.272Z,140707.69
2023-02-09T15:27:22.297Z,140685.53
2023-02-09T15:32:29.486Z,140649.94
2023-02-09T15:37:39.383Z,140592.19
2023-02-09T15:43:03.161Z,140525.84
2023-02-09T15:48:22.448Z,140476.78
2023-02-09T15:53:34.345Z,140443.66
2023-02-09T15:58:44.336Z,140405.56
2023-02-09T16:03:51.335Z,140385.91
2023-02-09T16:08:59.851Z,140344.22
2023-02-09T16:14:03.541Z,140322.13
2023-02-09T16:19:07.395Z,140307.41
2023-02-09T16:24:19.173Z,140296.34
2023-02-09T16:29:25.840Z,140301.25
2023-02-09T16:34:29.361Z,140296.34
2023-02-09T16:39:35.956Z,140282.88
2023-02-09T16:44:39.617Z,140252.19
2023-02-09T16:49:44.597Z,140274.25
2023-02-09T16:55:02.615Z,140258.31
2023-02-09T17:00:10.939Z,140253.44
2023-02-09T17:05:19.401Z,140246.03
2023-02-09T17:10:26.401Z,140280.41
2023-02-09T17:15:32.149Z,140295.13
2023-02-09T17:20:41.681Z,140274.25
2023-02-09T17:25:48.204Z,140228.88
2023-02-09T17:30:52.985Z,140241.13
2023-02-09T17:36:24.736Z,140265.69
2023-02-09T17:41:23.667Z,140250.97
2023-02-09T17:46:27.302Z,140248.53
2023-02-09T17:51:34.373Z,140214.16
2023-02-09T17:56:41.810Z,140198.28
2023-02-09T18:01:46.927Z,140179.88
2023-02-09T18:06:51.089Z,140214.16
2023-02-09T18:12:02.055Z,140233.78
2023-02-09T18:17:06.363Z,140226.44
2023-02-09T18:22:12.993Z,140200.69
2023-02-09T18:27:20.269Z,139959.22
2023-02-09T18:32:24.039Z,140138.19
2023-02-09T18:37:27.713Z,140150.44
2023-02-09T18:42:32.882Z,140121.00
2023-02-09T18:47:40.530Z,140094.03
2023-02-09T18:52:48.386Z,140089.16
2023-02-09T18:57:53.439Z,140070.75
2023-02-09T19:02:57.871Z,140047.44
2023-02-09T19:08:01.606Z,140011.91
2023-02-09T19:13:09.357Z,140026.66
2023-02-09T19:18:12.841Z,139997.22
2023-02-09T19:23:18.842Z,140013.13
2023-02-09T19:28:23.637Z,139987.41
2023-02-09T19:33:27.949Z,139966.56
2023-02-09T19:38:31.612Z,139969.06
2023-02-09T19:43:38.844Z,139943.31
2023-02-09T19:48:43.094Z,139909.03
2023-02-09T19:53:49.655Z,139895.56
2023-02-09T19:58:54.672Z,139905.34
2023-02-09T20:03:58.443Z,139898.03
2023-02-09T20:09:02.225Z,139887.00
2023-02-09T20:14:07.070Z,139877.19
2023-02-09T20:19:10.567Z,139869.84
2023-02-09T20:24:14.641Z,139857.63
2023-02-09T20:29:22.622Z,139849.00
2023-02-09T20:34:25.987Z,139836.78
2023-02-09T20:39:29.452Z,139836.78
2023-02-09T20:44:51.923Z,139839.22
2023-02-09T20:49:57.322Z,139835.56
2023-02-09T20:55:01.115Z,139833.13
2023-02-09T21:00:09.084Z,139817.19
2023-02-09T21:05:12.478Z,139809.84
2023-02-09T21:10:16.233Z,139813.50
2023-02-09T21:15:21.243Z,139846.56
2023-02-09T21:20:24.621Z,139873.50
2023-02-09T21:25:28.172Z,139864.97
2023-02-09T21:30:32.987Z,139868.63
2023-02-09T21:35:40.154Z,139852.69
2023-02-09T21:40:43.567Z,139861.28
2023-02-09T21:45:48.573Z,139890.69
2023-02-09T21:50:52.009Z,139938.44
2023-02-09T21:55:55.341Z,139997.22
2023-02-09T22:01:00.656Z,140033.97
2023-02-09T22:06:04.287Z,140073.19
2023-02-09T22:11:08.218Z,140117.34
2023-02-09T22:16:17.836Z,140155.34
2023-02-09T22:21:21.410Z,140179.88
2023-02-09T22:26:24.843Z,140206.81
2023-02-09T22:31:29.906Z,140244.81
2023-02-09T22:36:36.214Z,140248.53
